KGLD/GLD METAR and TAF weather

Enter ICAO airport designator
Station Type Date Time Source
KGLD METAR 2019/08/19 22:53 UTC NOAA

KGLD 192253Z AUTO 17015G21KT 10SM CLR 33/19 A2994 RMK AO2 SLP090 T03330194


Station Type Date Time Source
KGLD Decoded METAR 2019/08/19 22:53 UTC NOAA

GOODLAND RENNER FIELD, KS, United States (KGLD) 39-22N 101-42W 1114M
Aug 19, 2019 - 06:53 PM EDT / 2019.08.19 2253 UTC
Wind: from the S (170 degrees) at 17 MPH (15 KT) gusting to 24 MPH (21 KT):0
Visibility: 10 mile(s):0
Sky conditions: clear
Temperature: 91.9 F (33.3 C)
Heat index: 95.4 F (35.2 C):1
Dew Point: 66.9 F (19.4 C)
Relative Humidity: 44%
Pressure (altimeter): 29.94 in. Hg (1013 hPa)
ob: KGLD 192253Z AUTO 17015G21KT 10SM CLR 33/19 A2994 RMK AO2 SLP090 T03330194
cycle: 23

Station Type Date Time Source
KGLD TAF 2019/08/19 18:39 UTC NOAA

TAF KGLD 191736Z 1918/2018 17009KT P6SM SCT200
FM200500 19007KT P6SM FEW110 FEW200
FM201300 VRB04KT P6SM FEW110 FEW250

Example: see airport list